createdAt,value
2018-08-31T00:00:35.524Z,20.4
2018-08-31T00:01:47.728Z,20.38
2018-08-31T00:02:58.758Z,20.35
2018-08-31T00:04:08.843Z,20.27
2018-08-31T00:05:18.912Z,20.29
2018-08-31T00:06:28.991Z,20.27
2018-08-31T00:07:39.118Z,20.22
2018-08-31T00:08:48.912Z,20.32
2018-08-31T00:09:58.467Z,20.3
2018-08-31T00:11:07.750Z,20.3
2018-08-31T00:12:17.810Z,20.29
2018-08-31T00:13:27.882Z,20.23
2018-08-31T00:14:37.686Z,20.27
2018-08-31T00:15:47.767Z,20.19
2018-08-31T00:16:57.879Z,20.22
2018-08-31T00:18:08.022Z,20.22
2018-08-31T00:19:18.107Z,20.22
2018-08-31T00:20:28.202Z,20.26
2018-08-31T00:21:38.275Z,20.27
2018-08-31T00:22:48.354Z,20.29
2018-08-31T00:23:58.181Z,20.3
2018-08-31T00:25:08.259Z,20.29
2018-08-31T00:26:18.341Z,20.26
2018-08-31T00:27:28.426Z,20.26
2018-08-31T00:28:38.513Z,20.34
2018-08-31T00:29:48.595Z,20.27
2018-08-31T00:30:58.694Z,20.25
2018-08-31T00:32:08.506Z,20.25
2018-08-31T00:33:18.581Z,20.29
2018-08-31T00:34:28.661Z,20.32
2018-08-31T00:35:38.762Z,20.34
2018-08-31T00:36:48.850Z,20.25
2018-08-31T00:37:58.918Z,20.27
2018-08-31T00:39:08.998Z,20.25
2018-08-31T00:40:19.061Z,20.32
2018-08-31T00:41:29.154Z,20.25
2018-08-31T00:42:39.247Z,20.23
2018-08-31T00:43:49.352Z,20.34
2018-08-31T00:44:59.431Z,20.32
2018-08-31T00:46:09.251Z,20.29
2018-08-31T00:47:19.325Z,20.22
2018-08-31T00:48:29.133Z,20.29
2018-08-31T00:49:38.998Z,20.4
2018-08-31T00:50:48.803Z,20.37
2018-08-31T00:51:58.879Z,20.38
2018-08-31T00:53:08.962Z,20.37
2018-08-31T00:54:19.048Z,20.46
2018-08-31T00:55:29.166Z,20.37
2018-08-31T00:56:39.239Z,20.41
2018-08-31T00:57:49.360Z,20.49
2018-08-31T00:58:59.519Z,20.48
2018-08-31T01:00:09.588Z,20.37
2018-08-31T01:01:19.660Z,20.41
2018-08-31T01:02:29.743Z,20.44
2018-08-31T01:03:39.816Z,20.4
2018-08-31T01:04:49.894Z,20.42
2018-08-31T01:05:59.967Z,20.4
2018-08-31T01:07:10.091Z,20.38
2018-08-31T01:08:19.906Z,20.35
2018-08-31T01:09:29.700Z,20.35
2018-08-31T01:10:39.773Z,20.35
2018-08-31T01:11:49.859Z,20.32
2018-08-31T01:12:59.970Z,20.4
2018-08-31T01:14:10.067Z,20.35
2018-08-31T01:15:20.143Z,20.42
2018-08-31T01:16:30.217Z,20.4
2018-08-31T01:17:40.303Z,20.34
2018-08-31T01:18:50.389Z,20.37
2018-08-31T01:20:00.388Z,20.44
2018-08-31T01:21:10.460Z,20.37
2018-08-31T01:22:20.540Z,20.46
2018-08-31T01:23:30.607Z,20.48
2018-08-31T01:24:40.752Z,20.37
2018-08-31T01:25:50.819Z,20.44
2018-08-31T01:27:00.656Z,20.34
2018-08-31T01:28:10.743Z,20.44
2018-08-31T01:29:20.557Z,20.38
2018-08-31T01:30:30.636Z,20.38
2018-08-31T01:31:40.708Z,20.35
2018-08-31T01:32:50.530Z,20.37
2018-08-31T01:34:00.632Z,20.4
2018-08-31T01:35:10.462Z,20.4
2018-08-31T01:36:20.540Z,20.32
2018-08-31T01:37:30.619Z,20.29
2018-08-31T01:38:40.431Z,20.29
2018-08-31T01:39:50.230Z,20.27
2018-08-31T01:41:00.667Z,20.12
2018-08-31T01:42:10.483Z,20.05
2018-08-31T01:43:20.304Z,19.98
2018-08-31T01:44:30.395Z,19.97
2018-08-31T01:45:40.195Z,20.02
2018-08-31T01:46:50.254Z,19.9
2018-08-31T01:48:00.435Z,19.93
2018-08-31T01:49:10.489Z,19.86
2018-08-31T01:50:20.551Z,19.78
2018-08-31T01:51:30.617Z,19.75
2018-08-31T01:52:40.527Z,19.75
2018-08-31T01:53:50.867Z,19.78
2018-08-31T01:55:00.931Z,19.63
2018-08-31T01:56:11.014Z,19.61
2018-08-31T01:57:21.103Z,19.65
2018-08-31T01:58:31.188Z,19.52
2018-08-31T01:59:40.995Z,19.57
2018-08-31T02:00:51.065Z,19.56
2018-08-31T02:02:01.122Z,19.53
2018-08-31T02:03:10.935Z,19.52
2018-08-31T02:04:21.316Z,19.55
2018-08-31T02:05:31.463Z,19.5
2018-08-31T02:06:41.555Z,19.6
2018-08-31T02:07:51.627Z,19.5
2018-08-31T02:09:01.712Z,19.43
2018-08-31T02:10:11.534Z,19.49
2018-08-31T02:11:21.610Z,19.47
2018-08-31T02:12:31.668Z,19.47
2018-08-31T02:13:41.456Z,19.35
2018-08-31T02:14:51.546Z,19.43
2018-08-31T02:16:01.612Z,19.42
2018-08-31T02:17:11.934Z,19.35
2018-08-31T02:18:22.019Z,19.3
2018-08-31T02:19:32.090Z,19.32
2018-08-31T02:20:41.880Z,19.2
2018-08-31T02:21:51.947Z,19.24
2018-08-31T02:23:02.080Z,19.25
2018-08-31T02:24:12.149Z,19.19
2018-08-31T02:25:22.229Z,19.19
2018-08-31T02:26:32.029Z,19.02
2018-08-31T02:27:42.098Z,19.06
2018-08-31T02:28:51.950Z,19.13
2018-08-31T02:30:02.009Z,19.12
2018-08-31T02:31:12.093Z,19.1
2018-08-31T02:32:22.150Z,19.16
2018-08-31T02:33:32.221Z,19.13
2018-08-31T02:34:42.296Z,19.15
2018-08-31T02:35:52.108Z,18.97
2018-08-31T02:37:02.170Z,19
2018-08-31T02:38:12.254Z,18.96
2018-08-31T02:39:22.565Z,18.93
2018-08-31T02:40:32.550Z,18.97
2018-08-31T02:41:42.365Z,18.96
2018-08-31T02:42:52.432Z,18.89
2018-08-31T02:44:02.522Z,19.05
2018-08-31T02:45:12.612Z,18.96
2018-08-31T02:46:22.695Z,18.86
2018-08-31T02:47:32.772Z,18.94
2018-08-31T02:48:42.849Z,18.91
2018-08-31T02:49:52.924Z,18.9
2018-08-31T02:51:03.129Z,18.91
2018-08-31T02:52:13.277Z,18.93
2018-08-31T02:53:23.352Z,18.87
2018-08-31T02:54:33.410Z,18.91
2018-08-31T02:55:43.229Z,18.86
2018-08-31T02:56:53.284Z,18.86
2018-08-31T02:58:03.422Z,18.81
2018-08-31T02:59:13.507Z,18.82
2018-08-31T03:00:23.587Z,18.86
2018-08-31T03:01:33.675Z,18.9
2018-08-31T03:02:43.748Z,18.82
2018-08-31T03:34:54.591Z,16.81
2018-08-31T03:36:04.663Z,16.77
2018-08-31T03:37:14.734Z,16.77
2018-08-31T03:38:24.527Z,16.73
2018-08-31T03:39:34.604Z,16.81
2018-08-31T03:40:44.683Z,16.87
2018-08-31T03:41:54.767Z,16.94
2018-08-31T03:43:04.867Z,17.03
2018-08-31T03:44:14.676Z,17.09
2018-08-31T03:45:24.751Z,17.25
2018-08-31T03:46:34.825Z,17.31
2018-08-31T03:47:44.904Z,17.43
2018-08-31T03:48:54.198Z,17.46
2018-08-31T03:50:03.747Z,17.47
2018-08-31T03:51:13.560Z,17.69
2018-08-31T03:52:23.712Z,17.63
2018-08-31T03:53:33.520Z,17.76
2018-08-31T03:54:43.634Z,17.81
2018-08-31T03:55:53.723Z,17.83
2018-08-31T03:57:03.838Z,17.99
2018-08-31T03:58:13.661Z,18.03
2018-08-31T03:59:23.753Z,18.06
2018-08-31T04:00:33.627Z,18.17
2018-08-31T04:01:43.447Z,18.16
2018-08-31T04:02:53.558Z,18.23
2018-08-31T04:04:03.636Z,18.17
2018-08-31T04:05:13.726Z,18.2
2018-08-31T04:06:23.538Z,18.31
2018-08-31T04:07:33.626Z,18.29
2018-08-31T04:08:43.694Z,18.27
2018-08-31T04:09:53.772Z,18.36
2018-08-31T04:11:03.846Z,18.41
2018-08-31T04:12:13.899Z,18.45
2018-08-31T04:13:23.979Z,18.45
2018-08-31T04:14:34.063Z,18.5
2018-08-31T04:15:44.155Z,18.49
2018-08-31T04:16:54.228Z,18.42
2018-08-31T04:18:04.289Z,18.47
2018-08-31T04:19:14.100Z,18.53
2018-08-31T04:20:24.261Z,18.53
2018-08-31T04:21:34.351Z,18.6
2018-08-31T04:22:44.440Z,18.59
2018-08-31T04:23:54.525Z,18.61
2018-08-31T04:25:04.638Z,18.65
2018-08-31T04:26:13.916Z,18.68
2018-08-31T04:27:23.464Z,18.68
2018-08-31T04:28:33.533Z,18.78
2018-08-31T04:29:43.610Z,18.81
2018-08-31T04:30:53.675Z,18.82
2018-08-31T04:32:03.564Z,18.89
2018-08-31T04:33:13.398Z,18.86
2018-08-31T04:34:23.208Z,18.97
2018-08-31T04:35:33.270Z,19.3
2018-08-31T04:36:43.109Z,19.6
2018-08-31T04:37:53.169Z,19.74
2018-08-31T04:39:03.301Z,20.07
2018-08-31T04:40:13.110Z,20.18
2018-08-31T04:41:23.208Z,20.38
2018-08-31T04:42:33.291Z,20.54
2018-08-31T04:43:43.422Z,20.67
2018-08-31T04:44:53.237Z,20.81
2018-08-31T04:46:03.300Z,20.91
2018-08-31T04:47:13.382Z,21.21
2018-08-31T04:48:22.403Z,21.18
2018-08-31T04:49:32.221Z,21.4
2018-08-31T04:50:42.042Z,21.55
2018-08-31T04:51:51.863Z,21.64
2018-08-31T04:53:01.659Z,21.8
2018-08-31T04:54:11.219Z,21.9
2018-08-31T04:55:21.308Z,21.99
2018-08-31T04:56:31.433Z,22.18
2018-08-31T04:57:41.511Z,22.29
2018-08-31T04:58:51.763Z,22.31
2018-08-31T05:00:01.804Z,22.42
2018-08-31T05:01:11.623Z,22.54
2018-08-31T05:02:21.763Z,22.52
2018-08-31T05:03:31.851Z,22.73
2018-08-31T05:04:41.925Z,22.69
2018-08-31T05:05:51.995Z,22.86
2018-08-31T05:07:01.817Z,22.89
2018-08-31T05:08:11.888Z,22.99
2018-08-31T05:09:21.470Z,23.07
2018-08-31T05:10:31.272Z,23.18
2018-08-31T05:11:41.342Z,23.16
2018-08-31T05:12:51.194Z,23.29
2018-08-31T05:14:01.329Z,23.5
2018-08-31T05:15:11.433Z,23.55
2018-08-31T05:16:21.514Z,23.72
2018-08-31T05:17:31.582Z,23.74
2018-08-31T05:18:41.408Z,23.85
2018-08-31T05:19:51.501Z,23.97
2018-08-31T05:21:01.571Z,24.09
2018-08-31T05:22:11.419Z,24.11
2018-08-31T05:23:21.300Z,24.17
2018-08-31T05:24:31.390Z,24.26
2018-08-31T05:25:41.255Z,24.21
2018-08-31T05:26:51.092Z,23.94
2018-08-31T05:28:00.889Z,23.59
2018-08-31T05:29:10.975Z,23.62
2018-08-31T05:30:20.816Z,23.44
2018-08-31T05:31:30.911Z,23.21
2018-08-31T05:32:40.987Z,23.07
2018-08-31T05:33:51.063Z,22.99
2018-08-31T05:35:01.124Z,22.81
2018-08-31T05:36:10.685Z,22.79
2018-08-31T05:37:20.833Z,22.97
2018-08-31T05:38:30.907Z,23.29
2018-08-31T05:39:40.981Z,23.57
2018-08-31T05:40:50.796Z,23.62
2018-08-31T05:42:00.893Z,23.72
2018-08-31T05:43:11.071Z,23.53
2018-08-31T05:44:21.162Z,23.26
2018-08-31T05:45:31.259Z,23.14
2018-08-31T05:46:41.071Z,22.89
2018-08-31T05:47:51.153Z,23
2018-08-31T05:49:01.240Z,22.89
2018-08-31T05:50:11.314Z,22.81
2018-08-31T05:51:21.376Z,22.79
2018-08-31T05:52:31.458Z,22.75
2018-08-31T05:53:41.895Z,22.92
2018-08-31T05:54:51.712Z,23.04
2018-08-31T05:56:01.790Z,23.07
2018-08-31T05:57:11.610Z,23.01
2018-08-31T05:58:21.184Z,22.91
2018-08-31T05:59:31.252Z,22.82
2018-08-31T06:00:41.111Z,22.81
2018-08-31T06:01:50.665Z,22.97
2018-08-31T06:03:00.744Z,23
2018-08-31T06:04:10.573Z,23.01
2018-08-31T06:05:20.658Z,22.94
2018-08-31T06:06:30.723Z,22.91
2018-08-31T06:07:40.792Z,22.76
2018-08-31T06:08:50.613Z,22.81
2018-08-31T06:10:00.709Z,22.86
2018-08-31T06:11:10.772Z,22.91
2018-08-31T06:12:20.938Z,22.91
2018-08-31T06:13:31.025Z,22.91
2018-08-31T06:14:40.854Z,22.92
2018-08-31T06:15:50.930Z,22.89
2018-08-31T06:17:01.018Z,22.85
2018-08-31T06:18:11.135Z,22.88
2018-08-31T06:19:21.212Z,22.86
2018-08-31T06:20:31.030Z,22.81
2018-08-31T06:21:40.846Z,22.81
2018-08-31T06:22:50.907Z,22.78
2018-08-31T06:24:00.982Z,22.76
2018-08-31T06:25:10.785Z,22.79
2018-08-31T06:26:20.894Z,22.73
2018-08-31T06:27:31.036Z,22.75
2018-08-31T06:28:40.860Z,22.69
2018-08-31T06:29:50.960Z,22.81
2018-08-31T06:31:01.036Z,22.79
2018-08-31T06:32:11.098Z,22.85
2018-08-31T06:33:21.183Z,22.91
2018-08-31T06:34:31.264Z,22.97
2018-08-31T06:35:41.361Z,22.97
2018-08-31T06:36:51.438Z,22.99
2018-08-31T06:38:01.536Z,22.99
2018-08-31T06:39:11.621Z,22.99
2018-08-31T06:40:21.430Z,23.01
2018-08-31T06:41:31.561Z,23.09
2018-08-31T06:42:41.634Z,23.19
2018-08-31T06:43:51.714Z,23.18
2018-08-31T06:45:01.790Z,23.14
2018-08-31T06:46:11.873Z,23.18
2018-08-31T06:47:21.945Z,23.22
2018-08-31T06:48:32.006Z,23.25
2018-08-31T06:49:42.075Z,23.28
2018-08-31T06:50:52.141Z,23.41
2018-08-31T06:52:02.219Z,23.35
2018-08-31T06:53:12.096Z,23.45
2018-08-31T06:54:22.184Z,23.48
2018-08-31T06:55:32.248Z,23.44
2018-08-31T06:56:42.330Z,23.45
2018-08-31T06:57:52.434Z,23.5
2018-08-31T06:59:02.773Z,23.48
2018-08-31T07:00:12.872Z,23.52
2018-08-31T07:01:22.946Z,23.53
2018-08-31T07:02:33.024Z,23.56
2018-08-31T07:03:42.990Z,23.64
2018-08-31T07:04:53.498Z,23.59
2018-08-31T07:06:03.569Z,23.72
2018-08-31T07:07:13.363Z,23.71
2018-08-31T07:08:23.441Z,23.72
2018-08-31T07:09:33.261Z,23.82
2018-08-31T07:10:43.408Z,23.85
2018-08-31T07:11:53.496Z,23.9
2018-08-31T07:13:03.566Z,23.9
2018-08-31T07:14:13.421Z,23.99
2018-08-31T07:15:23.507Z,24.07
2018-08-31T07:16:33.324Z,24.04
2018-08-31T07:17:43.396Z,24.18
2018-08-31T07:18:53.468Z,24.22
2018-08-31T07:20:03.548Z,24.19
2018-08-31T07:21:13.635Z,24.14
2018-08-31T07:22:23.703Z,24.17
2018-08-31T07:23:33.800Z,24.32
2018-08-31T07:24:43.997Z,24.27
2018-08-31T07:25:54.095Z,24.4
2018-08-31T07:27:04.176Z,24.45
2018-08-31T07:28:14.247Z,24.46
2018-08-31T07:29:24.339Z,24.56
2018-08-31T07:30:34.150Z,24.64
2018-08-31T07:31:44.249Z,24.74
2018-08-31T07:32:54.338Z,24.7
2018-08-31T07:34:04.462Z,24.74
2018-08-31T07:35:14.576Z,24.74
2018-08-31T07:36:25.044Z,24.69
2018-08-31T07:37:34.874Z,24.7
2018-08-31T07:38:44.962Z,24.77
2018-08-31T07:39:55.104Z,24.83
2018-08-31T07:41:06.184Z,24.86
2018-08-31T07:42:18.272Z,24.85
2018-08-31T07:43:30.954Z,24.86
2018-08-31T07:44:43.132Z,24.87
2018-08-31T07:45:55.656Z,24.92
2018-08-31T07:47:06.869Z,24.86
2018-08-31T07:48:19.075Z,24.86
2018-08-31T07:49:31.086Z,24.94
2018-08-31T07:50:42.856Z,24.9
2018-08-31T07:51:54.921Z,24.97
2018-08-31T07:53:06.673Z,24.96
2018-08-31T07:54:18.671Z,24.9
2018-08-31T07:55:30.044Z,24.86
2018-08-31T07:56:42.115Z,25
2018-08-31T07:57:53.394Z,25.01
2018-08-31T07:59:03.513Z,25.17
2018-08-31T08:00:13.619Z,25.2
2018-08-31T08:01:23.739Z,25.23
2018-08-31T08:02:34.234Z,25.3
2018-08-31T08:03:44.319Z,25.26
2018-08-31T08:04:54.442Z,25.34
2018-08-31T08:06:04.566Z,25.39
2018-08-31T08:07:14.738Z,25.42
2018-08-31T08:08:24.995Z,25.45
2018-08-31T08:09:35.105Z,25.48
2018-08-31T08:10:44.997Z,25.51
2018-08-31T08:11:54.810Z,25.56
2018-08-31T08:13:04.762Z,25.59
2018-08-31T08:14:14.384Z,25.66
2018-08-31T08:15:24.240Z,25.54
2018-08-31T08:16:34.342Z,25.66
2018-08-31T08:17:44.431Z,25.71
2018-08-31T08:18:54.530Z,25.71
2018-08-31T08:20:04.693Z,25.82
2018-08-31T08:21:15.023Z,25.97
2018-08-31T08:22:25.422Z,26.07
2018-08-31T08:23:35.755Z,26.24
2018-08-31T08:24:45.595Z,26.41
2018-08-31T08:25:55.715Z,26.57
2018-08-31T08:27:05.808Z,26.61
2018-08-31T08:28:16.039Z,26.71
2018-08-31T08:29:26.460Z,26.71
2018-08-31T08:30:36.320Z,26.72
2018-08-31T08:31:46.468Z,26.96
2018-08-31T08:32:56.960Z,26.99
2018-08-31T08:34:06.853Z,27.06
2018-08-31T08:35:16.968Z,26.97
2018-08-31T08:36:27.083Z,26.87
2018-08-31T08:37:37.215Z,26.71
2018-08-31T08:38:47.027Z,26.67
2018-08-31T08:39:56.877Z,26.63
2018-08-31T08:41:07.006Z,26.61
2018-08-31T08:42:17.607Z,26.61
2018-08-31T08:43:27.249Z,26.72
2018-08-31T08:44:37.358Z,26.74
2018-08-31T08:45:47.446Z,26.99
2018-08-31T08:46:57.534Z,27.06
2018-08-31T08:48:07.653Z,27.21
2018-08-31T08:49:17.680Z,27.49
2018-08-31T08:50:27.499Z,27.57
2018-08-31T08:51:37.615Z,27.81
2018-08-31T08:52:47.690Z,27.98
2018-08-31T08:53:57.509Z,27.99
2018-08-31T08:55:22.322Z,28.06
2018-08-31T08:56:32.441Z,28.12
2018-08-31T08:57:42.541Z,28.18
2018-08-31T08:58:52.650Z,28.27
2018-08-31T09:00:02.840Z,28.39
2018-08-31T09:01:27.972Z,28.46
2018-08-31T09:02:37.582Z,28.61
2018-08-31T09:03:47.691Z,28.68
2018-08-31T09:04:57.784Z,28.79
2018-08-31T09:06:07.853Z,28.85
2018-08-31T09:07:17.993Z,28.95
2018-08-31T09:08:27.825Z,29.1
2018-08-31T09:19:01.499Z,29.55
2018-08-31T09:20:11.741Z,29.5
2018-08-31T09:21:21.661Z,29.5
2018-08-31T09:22:31.760Z,29.48
2018-08-31T09:23:41.638Z,29.32
2018-08-31T09:24:51.660Z,29.24
2018-08-31T09:26:01.492Z,29.05
2018-08-31T09:27:11.337Z,28.82
2018-08-31T09:28:21.489Z,28.76
2018-08-31T09:29:31.765Z,28.57
2018-08-31T09:30:41.617Z,28.45
2018-08-31T09:31:51.722Z,28.41
2018-08-31T09:33:01.832Z,28.3
2018-08-31T09:34:11.647Z,28.16
2018-08-31T09:35:21.461Z,28.14
2018-08-31T09:36:31.278Z,28.11
2018-08-31T09:37:41.110Z,28.23
2018-08-31T09:38:51.183Z,28.3
2018-08-31T09:40:01.318Z,28.46
2018-08-31T09:41:11.413Z,28.61
2018-08-31T09:42:21.481Z,28.75
2018-08-31T09:43:31.310Z,28.98
2018-08-31T09:44:41.414Z,29.1
2018-08-31T09:45:51.518Z,29.36
2018-08-31T09:47:01.652Z,29.54
2018-08-31T09:48:11.517Z,29.97
2018-08-31T09:49:21.356Z,30.22
2018-08-31T09:50:31.500Z,30.59
2018-08-31T09:51:41.659Z,30.75
2018-08-31T09:52:51.537Z,30.89
2018-08-31T09:54:01.104Z,30.94
2018-08-31T09:55:11.248Z,30.88
2018-08-31T09:56:21.361Z,30.91
2018-08-31T09:57:31.630Z,30.75
2018-08-31T09:58:42.076Z,30.75
2018-08-31T09:59:52.202Z,30.7
2018-08-31T10:01:02.297Z,30.64
2018-08-31T10:02:11.849Z,30.67
2018-08-31T10:03:21.939Z,30.75
2018-08-31T10:04:31.763Z,30.71
2018-08-31T10:05:41.857Z,30.7
2018-08-31T10:06:51.968Z,30.64
2018-08-31T10:08:02.054Z,30.57
2018-08-31T10:09:12.146Z,30.51
2018-08-31T10:10:22.002Z,30.47
2018-08-31T10:11:32.146Z,30.31
2018-08-31T10:12:42.238Z,30.09
2018-08-31T10:13:52.306Z,30.1
2018-08-31T10:15:02.375Z,30.09
2018-08-31T10:16:12.197Z,30.09
2018-08-31T10:17:22.296Z,30.09
2018-08-31T10:18:32.481Z,30.18
2018-08-31T10:19:42.386Z,30.35
2018-08-31T10:20:52.470Z,30.51
2018-08-31T10:22:02.553Z,30.75
2018-08-31T10:23:12.379Z,30.89
2018-08-31T10:24:22.587Z,31.13
2018-08-31T10:25:32.689Z,31.15
2018-08-31T10:26:42.767Z,31.41
2018-08-31T10:27:52.583Z,31.44
2018-08-31T10:29:02.813Z,31.6
2018-08-31T10:30:12.665Z,31.72
2018-08-31T10:31:22.705Z,31.78
2018-08-31T10:32:32.789Z,31.78
2018-08-31T10:33:42.891Z,31.91
2018-08-31T10:34:53.008Z,31.87
2018-08-31T10:36:03.355Z,31.95
2018-08-31T10:37:13.445Z,32.03
2018-08-31T10:38:23.554Z,32.09
2018-08-31T10:39:33.635Z,32.15
2018-08-31T10:40:43.744Z,32.27
2018-08-31T10:41:53.581Z,32.35
2018-08-31T10:43:03.420Z,32.47
2018-08-31T10:44:13.515Z,32.53
2018-08-31T10:45:23.336Z,32.46
2018-08-31T10:46:33.414Z,32.42
2018-08-31T10:47:43.880Z,32.38
2018-08-31T10:48:53.990Z,32.28
2018-08-31T10:50:04.116Z,32.24
2018-08-31T10:51:14.223Z,32.27
2018-08-31T10:52:24.319Z,32.13
2018-08-31T10:53:34.526Z,32.09
2018-08-31T10:54:44.610Z,31.95
2018-08-31T10:55:54.762Z,31.75
2018-08-31T10:57:05.314Z,31.53
2018-08-31T10:58:15.408Z,31.44
2018-08-31T10:59:25.251Z,31.28
2018-08-31T11:00:35.352Z,30.93
2018-08-31T11:01:45.478Z,30.77
2018-08-31T11:02:55.761Z,30.67
2018-08-31T11:04:06.213Z,30.54
2018-08-31T11:05:16.049Z,30.51
2018-08-31T11:06:25.864Z,30.45
2018-08-31T11:07:35.967Z,30.32
2018-08-31T11:08:45.794Z,30.54
2018-08-31T11:09:55.654Z,30.54
2018-08-31T11:11:05.782Z,30.59
2018-08-31T11:12:15.879Z,30.69
2018-08-31T11:13:25.980Z,30.69
2018-08-31T11:14:35.835Z,30.93
2018-08-31T11:15:45.981Z,30.97
2018-08-31T11:16:56.069Z,30.96
2018-08-31T11:18:05.914Z,30.93
2018-08-31T11:19:16.031Z,31.06
2018-08-31T11:20:26.132Z,31.04
2018-08-31T11:21:36.233Z,31.08
2018-08-31T11:22:46.331Z,31.1
2018-08-31T11:23:56.560Z,31.12
2018-08-31T11:25:06.697Z,31.19
2018-08-31T11:26:16.806Z,31.31
2018-08-31T11:27:26.927Z,31.33
2018-08-31T11:28:36.739Z,31.34
2018-08-31T11:29:46.826Z,31.31
2018-08-31T11:30:56.927Z,31.41
2018-08-31T11:32:06.787Z,31.37
2018-08-31T11:33:16.961Z,31.44
2018-08-31T11:34:27.071Z,31.34
2018-08-31T11:35:36.649Z,31.38
2018-08-31T11:36:46.843Z,31.36
2018-08-31T11:37:57.013Z,31.31
2018-08-31T11:39:06.628Z,31.21
2018-08-31T11:40:16.766Z,31.15
2018-08-31T11:41:26.668Z,31.01
2018-08-31T11:42:35.986Z,30.93
2018-08-31T11:43:46.094Z,30.67
2018-08-31T11:44:56.406Z,30.63
2018-08-31T11:46:06.517Z,30.48
2018-08-31T11:47:16.447Z,30.37
2018-08-31T11:48:26.385Z,30.24
2018-08-31T11:49:36.613Z,30.22
2018-08-31T11:50:46.491Z,30.16
2018-08-31T11:51:56.653Z,30.09
2018-08-31T11:53:06.523Z,30.02
2018-08-31T11:54:16.735Z,30.03
2018-08-31T11:55:26.929Z,30.04
2018-08-31T11:56:37.040Z,30
2018-08-31T11:57:47.132Z,30.09
2018-08-31T11:58:57.228Z,30.03
2018-08-31T12:00:07.369Z,30.25
2018-08-31T12:01:17.600Z,30.44
2018-08-31T12:02:27.908Z,30.75
2018-08-31T12:03:38.015Z,31.16
2018-08-31T12:04:48.118Z,31.41
2018-08-31T12:05:58.228Z,31.53
2018-08-31T12:07:08.077Z,31.49
2018-08-31T12:08:18.181Z,31.58
2018-08-31T12:09:28.283Z,31.55
2018-08-31T12:10:38.434Z,31.41
2018-08-31T12:11:48.582Z,31.41
2018-08-31T12:12:58.468Z,31.55
2018-08-31T12:14:08.552Z,31.7
2018-08-31T12:15:18.104Z,31.72
2018-08-31T12:16:28.195Z,31.7
2018-08-31T12:17:38.271Z,31.71
2018-08-31T12:18:48.421Z,31.77
2018-08-31T12:19:58.522Z,31.6
2018-08-31T12:21:08.665Z,31.38
2018-08-31T12:22:18.832Z,31.22
2018-08-31T12:23:28.962Z,31.23
2018-08-31T12:24:39.069Z,31.01
2018-08-31T12:25:49.198Z,31.12
2018-08-31T12:26:59.032Z,31.26
2018-08-31T12:28:09.133Z,31.34
2018-08-31T12:29:19.239Z,31.41
2018-08-31T12:30:29.625Z,31.55
2018-08-31T12:31:39.452Z,31.47
2018-08-31T12:32:49.561Z,31.5
2018-08-31T12:33:59.658Z,31.44
2018-08-31T12:35:09.491Z,31.38
2018-08-31T12:36:19.597Z,31.44
2018-08-31T12:37:29.741Z,31.41
2018-08-31T12:38:39.833Z,31.4
2018-08-31T12:39:49.398Z,31.44
2018-08-31T12:40:59.488Z,31.41
2018-08-31T12:42:09.304Z,31.43
2018-08-31T12:43:19.390Z,31.43
2018-08-31T12:44:29.505Z,31.49
2018-08-31T12:45:39.382Z,31.7
2018-08-31T12:46:49.447Z,31.86
2018-08-31T12:47:59.335Z,32.08
2018-08-31T12:49:09.437Z,32.01
2018-08-31T12:50:19.540Z,32.08
2018-08-31T12:51:29.356Z,32.08
2018-08-31T12:52:39.454Z,31.91
2018-08-31T12:53:49.296Z,31.88
2018-08-31T12:54:59.409Z,31.97
2018-08-31T12:56:09.248Z,31.95
2018-08-31T12:57:19.340Z,31.8
2018-08-31T12:58:29.478Z,31.72
2018-08-31T12:59:39.382Z,31.6
2018-08-31T13:00:49.485Z,31.47
2018-08-31T13:01:59.593Z,31.41
2018-08-31T13:03:09.717Z,31.28
2018-08-31T13:04:19.542Z,31.23
2018-08-31T13:05:29.963Z,31.18
2018-08-31T13:06:40.132Z,30.99
2018-08-31T13:07:50.251Z,30.88
2018-08-31T13:09:00.438Z,30.73
2018-08-31T13:10:10.547Z,30.62
2018-08-31T13:11:20.713Z,30.48
2018-08-31T13:12:31.039Z,30.28
2018-08-31T13:13:41.141Z,30.16
2018-08-31T13:14:51.265Z,30.09
2018-08-31T13:16:01.433Z,30.03
2018-08-31T13:17:11.314Z,30.02
2018-08-31T13:18:21.427Z,30.02
2018-08-31T13:19:31.277Z,30.09
2018-08-31T13:20:41.393Z,30.13
2018-08-31T13:21:51.506Z,30
2018-08-31T13:23:01.392Z,29.97
2018-08-31T13:24:11.485Z,29.89
2018-08-31T13:25:21.503Z,29.76
2018-08-31T13:26:31.863Z,29.66
2018-08-31T13:27:41.957Z,29.67
2018-08-31T13:28:52.119Z,29.52
2018-08-31T13:30:02.223Z,29.45
2018-08-31T13:31:12.577Z,29.45
2018-08-31T13:32:23.057Z,29.47
2018-08-31T13:33:33.154Z,29.47
2018-08-31T13:34:43.560Z,29.51
2018-08-31T13:35:53.663Z,29.6
2018-08-31T13:37:03.743Z,29.77
2018-08-31T13:38:13.989Z,30.03
2018-08-31T13:39:23.910Z,30.1
2018-08-31T13:40:34.080Z,30.21
2018-08-31T13:41:43.901Z,30.4
2018-08-31T13:42:54.075Z,30.48
2018-08-31T13:44:04.068Z,30.48
2018-08-31T13:45:14.423Z,30.56
2018-08-31T13:46:24.463Z,30.67
2018-08-31T13:47:34.161Z,30.62
2018-08-31T13:48:44.001Z,30.75
2018-08-31T13:49:54.125Z,30.69
2018-08-31T13:51:04.239Z,30.73
2018-08-31T13:52:14.116Z,30.78
2018-08-31T13:53:23.946Z,30.77
2018-08-31T13:54:33.785Z,30.75
2018-08-31T13:55:43.867Z,30.71
2018-08-31T13:56:53.446Z,30.78
2018-08-31T13:58:03.626Z,30.7
2018-08-31T13:59:13.515Z,30.66
2018-08-31T14:00:23.636Z,30.56
2018-08-31T14:01:33.456Z,30.62
2018-08-31T14:02:43.313Z,30.59
2018-08-31T14:03:53.621Z,30.54
2018-08-31T14:05:03.747Z,30.6
2018-08-31T14:06:13.867Z,30.56
2018-08-31T14:07:23.955Z,30.67
2018-08-31T14:08:34.046Z,30.59
2018-08-31T14:09:44.170Z,30.71
2018-08-31T14:10:54.280Z,30.59
2018-08-31T14:12:04.388Z,30.75
2018-08-31T14:13:13.960Z,30.7
2018-08-31T14:14:24.079Z,30.62
2018-08-31T14:15:34.060Z,30.57
2018-08-31T14:16:44.380Z,30.56
2018-08-31T14:17:54.461Z,30.51
2018-08-31T14:19:04.297Z,30.57
2018-08-31T14:20:14.379Z,30.75
2018-08-31T14:21:24.470Z,30.82
2018-08-31T14:22:34.301Z,31.03
2018-08-31T14:23:44.141Z,31.18
2018-08-31T14:24:54.249Z,31.31
2018-08-31T14:26:04.354Z,31.34
2018-08-31T14:27:14.480Z,31.3
2018-08-31T14:28:24.321Z,31.26
2018-08-31T14:29:34.609Z,31.03
2018-08-31T14:30:45.013Z,30.78
2018-08-31T14:31:55.110Z,30.48
2018-08-31T14:33:04.684Z,30.21
2018-08-31T14:34:14.829Z,29.98
2018-08-31T14:35:24.413Z,29.94
2018-08-31T14:36:34.742Z,29.87
2018-08-31T14:37:45.198Z,29.76
2018-08-31T14:38:55.029Z,29.89
2018-08-31T14:40:04.861Z,29.88
2018-08-31T14:41:14.955Z,29.82
2018-08-31T14:42:25.277Z,29.76
2018-08-31T14:43:35.378Z,29.79
2018-08-31T14:44:45.229Z,29.73
2018-08-31T14:45:55.325Z,29.85
2018-08-31T14:47:05.431Z,29.88
2018-08-31T14:48:15.240Z,29.87
2018-08-31T14:49:25.101Z,29.79
2018-08-31T14:50:35.486Z,29.72
2018-08-31T14:51:45.839Z,29.66
2018-08-31T14:52:55.727Z,29.45
2018-08-31T14:54:05.883Z,29.43
2018-08-31T14:55:15.975Z,29.28
2018-08-31T14:56:26.094Z,29.08
2018-08-31T14:57:36.350Z,28.92
2018-08-31T14:58:47.307Z,28.91
2018-08-31T14:59:57.403Z,28.7
2018-08-31T15:01:07.482Z,28.65
2018-08-31T15:02:17.563Z,28.54
2018-08-31T15:03:27.678Z,28.43
2018-08-31T15:04:37.772Z,28.36
2018-08-31T15:05:47.998Z,28.18
2018-08-31T15:06:58.313Z,28.2
2018-08-31T15:08:08.398Z,28.12
2018-08-31T15:09:18.244Z,28.03
2018-08-31T15:10:28.136Z,28.05
2018-08-31T15:11:38.220Z,27.99
2018-08-31T15:12:48.328Z,27.99
2018-08-31T15:13:58.579Z,28.01
2018-08-31T15:15:08.664Z,28.03
2018-08-31T15:16:18.855Z,28.03
2018-08-31T15:17:29.668Z,28.05
2018-08-31T15:18:39.758Z,28.11
2018-08-31T15:19:49.867Z,28.17
2018-08-31T15:20:59.965Z,28.17
2018-08-31T15:22:09.842Z,28.18
2018-08-31T15:23:19.736Z,28.24
2018-08-31T15:24:29.967Z,28.23
2018-08-31T15:25:40.670Z,28.27
2018-08-31T15:26:50.928Z,28.28
2018-08-31T15:28:01.082Z,28.36
2018-08-31T15:29:11.178Z,28.49
2018-08-31T15:30:21.286Z,28.41
2018-08-31T15:31:31.442Z,28.46
2018-08-31T15:32:41.255Z,28.48
2018-08-31T15:33:51.402Z,28.49
2018-08-31T15:35:01.499Z,28.53
2018-08-31T15:36:11.598Z,28.53
2018-08-31T15:37:21.699Z,28.54
2018-08-31T15:38:31.578Z,28.64
2018-08-31T15:39:41.412Z,28.67
2018-08-31T15:40:51.489Z,28.65
2018-08-31T15:42:01.594Z,28.76
2018-08-31T15:43:11.497Z,28.78
2018-08-31T15:44:21.608Z,28.75
2018-08-31T15:45:31.724Z,28.73
2018-08-31T15:46:41.840Z,28.82